To NAV CANADA Home Page Login to a new session Search on AWWS site Feedback and Comments Disclaimer Vers la page française équivalente Tips FAQ What's new on the site To the Forecasts and Observations / NOTAM section To "File a Flight Plan" website Publications and other links Update of the User's profile FIC Telephone Numbers My Weather Data Folder Route Weather Data Regional Weather Data Local Weather Data To the Forecasts and Observations / NOTAM section
Request Generated 04/24/2014 at 01:32:03 UTC . Weather information available at that time is displayed.

METAR/TAF

ABBOTSFORD/BC    

METAR CYXX 240100Z 19002KT 30SM BKN060TCU BKN180 12/04 A2978 RMK
TCU5AC2 SLP087=
METAR CYXX 240000Z 02007KT 30SM BKN060TCU OVC180 12/05 A2980 RMK
TCU6AC2 SLP091=
METAR CYXX 232300Z 36007KT 30SM BKN060TCU BKN180 13/06 A2983 RMK
TCU5AC2 SLP101=

TAF CYXX 232338Z 2400/2424 36007KT P6SM BKN060 TEMPO 2404/2406 P6SM
-SHRA
FM240600 05007KT P6SM -RA FEW015 BKN030
FM240900 05010KT P6SM -RA FEW008 OVC020 TEMPO 2411/2418 5SM -RA
BR BKN008
FM241900 22008KT P6SM BKN040 TEMPO 2422/2424 P6SM -SHRA BKN020
RMK NXT FCST BY 240600Z=
Your time UTC time
Weather data provided by Environment Canada and NAV CANADA